Time;durP1;ratioP1;P1;durP2;ratioP2;P2;SDS_P1;SDS_P2;PMS_P1;PMS_P2;Temp;Humidity;BMP_temperature;BMP_pressure;BME280_temperature;BME280_humidity;BME280_pressure;Samples;Min_cycle;Max_cycle;Signal;HPM_P1;HPM_P2
2022/06/28 00:01:41;;;;;;;;;1.00;1.00;;;;;17.36;100.00;101757.25;5037363;28;44769;-81
2022/06/28 00:04:07;;;;;;;;;2.00;1.75;;;;;17.36;100.00;101751.88;5036210;28;45358;-81
2022/06/28 00:06:33;;;;;;;;;2.00;2.00;;;;;17.34;100.00;101751.13;5036976;28;45421;-82
2022/06/28 00:08:58;;;;;;;;;0.50;0.50;;;;;17.34;100.00;101748.44;5037551;28;44791;-81
2022/06/28 00:11:23;;;;;;;;;2.00;2.00;;;;;17.34;100.00;101747.59;5037156;28;45340;-82
2022/06/28 00:13:49;;;;;;;;;1.50;1.50;;;;;17.31;100.00;101748.72;5036553;28;45073;-82
2022/06/28 00:16:16;;;;;;;;;2.75;2.00;;;;;17.32;100.00;101741.50;5037861;28;45340;-82
2022/06/28 00:18:43;;;;;;;;;3.80;1.80;;;;;17.29;100.00;101753.31;5036181;28;44885;-82
2022/06/28 00:21:10;;;;;;;;;1.60;1.20;;;;;17.26;100.00;101748.22;5036542;28;44935;-82
2022/06/28 00:23:38;;;;;;;;;5.20;2.00;;;;;17.21;100.00;101743.22;5036232;28;45653;-82
2022/06/28 00:26:05;;;;;;;;;1.00;1.00;;;;;17.21;100.00;101751.25;5036375;28;45352;-81
2022/06/28 00:28:30;;;;;;;;;0.00;0.00;;;;;17.18;100.00;101751.50;5034500;28;45383;-82
2022/06/28 00:30:56;;;;;;;;;1.00;1.00;;;;;17.16;100.00;101758.81;5036748;28;44928;-81
2022/06/28 00:33:21;;;;;;;;;2.00;2.00;;;;;17.15;100.00;101749.03;5036851;28;45461;-81
2022/06/28 00:35:47;;;;;;;;;3.50;1.50;;;;;17.16;100.00;101752.56;5036517;28;44785;-81
2022/06/28 00:38:12;;;;;;;;;1.00;1.00;;;;;17.15;100.00;101750.88;5035407;28;45369;-81
2022/06/28 00:40:49;;;;;;;;;1.75;1.75;;;;;17.14;100.00;101746.47;5037476;28;45457;-81
2022/06/28 00:43:15;;;;;;;;;3.40;1.20;;;;;17.11;100.00;101742.19;5035928;28;45403;-81
2022/06/28 00:45:43;;;;;;;;;4.20;2.20;;;;;17.12;100.00;101743.06;5017756;28;45285;-81
2022/06/28 00:48:13;;;;;;;;;1.00;1.00;;;;;17.06;100.00;101747.06;5035077;28;45353;-81
2022/06/28 00:50:38;;;;;;;;;1.00;1.00;;;;;17.02;100.00;101742.94;5036138;28;45420;-81
2022/06/28 00:53:08;;;;;;;;;1.00;1.00;;;;;17.03;100.00;101741.09;5035269;28;45359;-81
2022/06/28 00:55:34;;;;;;;;;2.60;2.00;;;;;17.03;100.00;101750.00;5036118;28;44883;-81
2022/06/28 00:58:00;;;;;;;;;1.60;1.00;;;;;17.00;100.00;101744.88;5036228;28;45426;-81
2022/06/28 01:00:27;;;;;;;;;2.00;2.00;;;;;16.99;100.00;101740.47;5036109;28;45472;-81
2022/06/28 01:02:52;;;;;;;;;2.00;1.00;;;;;16.97;100.00;101739.75;5035950;28;45555;-81
2022/06/28 01:05:19;;;;;;;;;3.00;2.50;;;;;16.93;100.00;101740.97;5036432;28;45498;-81
2022/06/28 01:07:44;;;;;;;;;3.00;1.60;;;;;16.92;100.00;101745.50;5036170;28;45447;-81
2022/06/28 01:10:10;;;;;;;;;5.75;1.75;;;;;16.93;100.00;101738.28;5035897;28;44941;-81
2022/06/28 01:12:35;;;;;;;;;1.25;1.25;;;;;16.91;100.00;101737.53;5036873;28;45199;-81
2022/06/28 01:15:03;;;;;;;;;3.00;2.00;;;;;16.89;100.00;101731.44;5040224;28;44754;-86
2022/06/28 01:17:28;;;;;;;;;3.00;2.60;;;;;16.85;100.00;101743.38;5040898;28;44735;-87
2022/06/28 01:19:53;;;;;;;;;1.00;1.00;;;;;16.86;100.00;101734.34;5038021;28;44925;-87
2022/06/28 01:22:20;;;;;;;;;3.00;1.25;;;;;16.86;100.00;101743.25;5037064;28;45265;-87
2022/06/28 01:27:15;;;;;;;;;1.40;1.40;;;;;16.83;100.00;101738.16;4896993;28;44915;-87
2022/06/28 01:29:41;;;;;;;;;1.00;1.00;;;;;16.82;100.00;101740.94;5001843;28;44864;-88
2022/06/28 01:32:07;;;;;;;;;1.00;1.00;;;;;16.78;100.00;101731.41;5005284;28;45363;-86
2022/06/28 01:34:32;;;;;;;;;3.00;1.50;;;;;16.75;100.00;101732.50;5013858;28;45346;-81
2022/06/28 01:36:57;;;;;;;;;1.75;1.75;;;;;16.75;100.00;101734.34;5019061;28;45407;-81
2022/06/28 01:39:23;;;;;;;;;3.25;1.00;;;;;16.71;100.00;101728.31;5019318;28;44755;-81
2022/06/28 01:41:50;;;;;;;;;2.25;1.00;;;;;16.71;100.00;101731.00;5015448;28;45306;-81
2022/06/28 01:44:16;;;;;;;;;2.00;2.00;;;;;16.69;100.00;101731.13;4981387;28;45394;-81
2022/06/28 01:46:41;;;;;;;;;1.00;1.00;;;;;16.66;100.00;101731.34;4999032;28;45346;-81
2022/06/28 01:49:08;;;;;;;;;1.50;1.50;;;;;16.67;100.00;101730.38;4999743;28;44711;-81
2022/06/28 01:51:34;;;;;;;;;3.00;1.20;;;;;16.64;100.00;101730.63;4981714;28;45022;-81
2022/06/28 01:54:00;;;;;;;;;3.00;1.00;;;;;16.63;100.00;101730.72;4999142;28;45316;-81
2022/06/28 01:56:25;;;;;;;;;0.75;0.75;;;;;16.64;100.00;101741.34;4999008;28;45400;-81
2022/06/28 01:58:51;;;;;;;;;2.00;2.00;;;;;16.62;100.00;101735.22;5000908;28;45353;-81
2022/06/28 02:01:17;;;;;;;;;1.75;1.75;;;;;16.60;100.00;101731.81;5002077;28;45387;-81
2022/06/28 02:03:42;;;;;;;;;2.25;1.00;;;;;16.59;100.00;101731.94;4999289;28;45381;-81
2022/06/28 02:06:09;;;;;;;;;1.00;1.00;;;;;16.53;100.00;101727.88;4999611;28;44731;-81
2022/06/28 02:08:35;;;;;;;;;1.00;1.00;;;;;16.55;100.00;101731.31;5000002;28;45377;-86
2022/06/28 02:11:03;;;;;;;;;2.00;0.40;;;;;16.54;100.00;101726.94;5000000;28;46574;-81
2022/06/28 02:13:28;;;;;;;;;0.00;0.00;;;;;16.53;100.00;101724.34;4998923;28;44903;-81
2022/06/28 02:15:54;;;;;;;;;1.75;1.00;;;;;16.54;100.00;101720.72;5005535;28;44826;-87
2022/06/28 02:18:19;;;;;;;;;1.00;1.00;;;;;16.51;100.00;101726.31;5010115;28;45415;-86
2022/06/28 02:20:45;;;;;;;;;2.25;2.25;;;;;16.48;100.00;101730.06;5009927;28;46568;-86
2022/06/28 02:23:10;;;;;;;;;2.00;2.00;;;;;16.45;100.00;101725.78;5008649;28;45432;-86
2022/06/28 02:25:36;;;;;;;;;1.25;1.25;;;;;16.45;100.00;101722.25;5006375;28;44822;-86
2022/06/28 02:28:01;;;;;;;;;2.00;0.25;;;;;16.40;100.00;101719.94;5007374;28;45376;-86
2022/06/28 02:30:27;;;;;;;;;1.75;0.00;;;;;16.37;100.00;101722.84;5007350;28;44902;-81
2022/06/28 02:32:52;;;;;;;;;3.50;1.00;;;;;16.34;100.00;101731.13;4999531;28;45306;-81
2022/06/28 02:40:46;;;;;;;;;2.00;2.00;;;;;16.24;100.00;101721.19;4998045;28;45906;-81
2022/06/28 02:43:11;;;;;;;;;1.75;1.75;;;;;16.19;100.00;101718.84;4997574;28;45376;-82
2022/06/28 02:45:37;;;;;;;;;0.75;0.75;;;;;16.16;100.00;101714.59;4998652;28;44847;-81
2022/06/28 02:48:04;;;;;;;;;2.00;2.00;;;;;16.14;100.00;101719.19;4998375;28;45451;-81
2022/06/28 02:50:29;;;;;;;;;0.40;0.40;;;;;16.13;100.00;101722.00;4998566;28;45521;-81
2022/06/28 02:52:55;;;;;;;;;1.75;1.00;;;;;16.12;100.00;101718.47;4981072;28;44762;-80
2022/06/28 02:55:20;;;;;;;;;1.00;1.00;;;;;16.11;100.00;101732.00;4999359;28;44708;-81
2022/06/28 02:57:46;;;;;;;;;1.00;1.00;;;;;16.11;100.00;101723.94;5000604;28;45616;-81
2022/06/28 03:00:16;;;;;;;;;1.00;1.00;;;;;16.07;100.00;101720.63;4981182;28;45457;-82
2022/06/28 03:02:44;;;;;;;;;2.00;1.00;;;;;16.06;100.00;101726.13;5018533;28;45236;-81
2022/06/28 03:05:13;;;;;;;;;3.40;0.40;;;;;16.04;100.00;101725.34;5000650;28;44758;-81
2022/06/28 03:07:39;;;;;;;;;1.20;1.00;;;;;15.99;100.00;101722.16;5019692;28;44844;-82
2022/06/28 03:10:06;;;;;;;;;0.80;0.80;;;;;15.96;100.00;101722.41;5004400;28;46635;-81
2022/06/28 03:12:32;;;;;;;;;0.40;0.40;;;;;15.94;100.00;101722.50;5019508;28;45419;-81
2022/06/28 03:14:57;;;;;;;;;1.00;1.00;;;;;15.91;100.00;101720.06;5018269;28;44867;-81
2022/06/28 03:17:23;;;;;;;;;3.00;1.75;;;;;15.91;100.00;101726.28;5001250;28;45322;-81
2022/06/28 03:19:48;;;;;;;;;0.50;0.50;;;;;15.88;100.00;101718.44;5019040;28;45196;-81
2022/06/28 03:22:13;;;;;;;;;1.50;0.75;;;;;15.88;100.00;101721.13;5018089;28;45155;-81
2022/06/28 03:24:39;;;;;;;;;1.00;0.25;;;;;15.89;100.00;101722.00;5018018;28;45392;-82
2022/06/28 03:27:04;;;;;;;;;2.50;2.00;;;;;15.87;100.00;101722.09;5019791;28;46313;-81
2022/06/28 03:29:30;;;;;;;;;0.50;0.00;;;;;15.86;100.00;101716.88;5039769;28;45367;-81
2022/06/28 03:31:55;;;;;;;;;0.00;0.00;;;;;15.89;100.00;101720.16;5039286;28;45305;-81
2022/06/28 03:34:21;;;;;;;;;0.25;0.25;;;;;15.89;100.00;101713.94;5037970;28;44730;-81
2022/06/28 03:36:47;;;;;;;;;0.25;0.25;;;;;15.92;100.00;101716.41;5037364;28;44766;-81
2022/06/28 03:39:12;;;;;;;;;2.75;1.00;;;;;15.93;100.00;101718.13;5037305;28;45296;-81
2022/06/28 03:44:29;;;;;;;;;1.00;1.00;;;;;15.91;100.00;101712.03;4954148;28;45034;-81
2022/06/28 03:46:54;;;;;;;;;1.25;1.25;;;;;15.91;100.00;101720.06;5005548;28;44928;-81
2022/06/28 03:49:19;;;;;;;;;0.50;0.50;;;;;15.90;100.00;101718.34;4980263;28;46316;-80
2022/06/28 03:51:46;;;;;;;;;1.50;1.00;;;;;15.90;100.00;101721.00;5014107;28;44787;-81
2022/06/28 03:54:11;;;;;;;;;1.00;1.00;;;;;15.87;100.00;101732.81;5016828;28;44834;-81
2022/06/28 03:56:36;;;;;;;;;0.75;0.00;;;;;15.83;100.00;101722.44;5016868;28;44901;-81
2022/06/28 03:59:02;;;;;;;;;1.00;1.00;;;;;15.80;100.00;101733.38;5010380;28;45638;-81
2022/06/28 04:01:27;;;;;;;;;2.00;1.25;;;;;15.77;100.00;101728.25;4997396;28;44834;-81
2022/06/28 04:03:52;;;;;;;;;1.00;1.00;;;;;15.78;100.00;101719.25;4997968;28;45368;-81
2022/06/28 04:06:18;;;;;;;;;1.00;1.00;;;;;15.85;100.00;101723.19;4979796;28;45599;-81
2022/06/28 04:08:43;;;;;;;;;1.00;1.00;;;;;15.97;100.00;101729.47;4997269;28;45302;-81
2022/06/28 04:11:14;;;;;;;;;1.00;0.50;;;;;16.09;100.00;101728.56;4999952;28;45316;-81
2022/06/28 04:13:46;;;;;;;;;3.80;1.00;;;;;16.21;100.00;101729.47;5000189;28;45404;-81
2022/06/28 04:16:12;;;;;;;;;4.00;1.00;;;;;16.35;100.00;101738.19;5005958;28;45405;-81
2022/06/28 04:18:37;;;;;;;;;1.00;1.00;;;;;16.52;100.00;101728.00;5017183;28;45397;-81
2022/06/28 04:21:03;;;;;;;;;2.25;1.00;;;;;16.63;100.00;101730.72;5016855;28;45321;-81
2022/06/28 04:23:28;;;;;;;;;2.00;1.00;;;;;16.80;100.00;101726.78;5016576;28;44826;-81
2022/06/28 04:25:53;;;;;;;;;1.25;1.25;;;;;16.93;100.00;101733.78;5016406;28;45253;-81
2022/06/28 04:28:19;;;;;;;;;2.25;2.00;;;;;17.08;100.00;101734.41;5016190;28;45549;-81
2022/06/28 04:30:44;;;;;;;;;1.75;1.00;;;;;17.20;100.00;101728.03;5016322;28;45340;-82
2022/06/28 04:33:10;;;;;;;;;1.25;1.25;;;;;17.29;100.00;101726.47;5016583;28;45326;-81
2022/06/28 04:35:35;;;;;;;;;2.00;1.00;;;;;17.44;100.00;101729.75;5016941;28;45416;-82
2022/06/28 04:38:01;;;;;;;;;1.00;1.00;;;;;17.61;100.00;101737.34;5017574;28;45108;-81
2022/06/28 04:40:27;;;;;;;;;2.00;1.25;;;;;17.74;100.00;101737.19;5016712;28;44809;-82
2022/06/28 04:42:52;;;;;;;;;2.20;1.00;;;;;17.89;100.00;101737.78;5016426;28;44802;-82
2022/06/28 04:45:18;;;;;;;;;0.00;0.00;;;;;18.05;100.00;101737.41;4998794;28;44849;-82
2022/06/28 04:47:43;;;;;;;;;2.00;1.00;;;;;18.20;100.00;101736.13;5019616;28;45145;-81
2022/06/28 04:50:09;;;;;;;;;1.00;1.00;;;;;18.32;100.00;101729.72;5017691;28;44783;-82
2022/06/28 04:52:36;;;;;;;;;2.00;1.00;;;;;18.55;100.00;101737.69;5018079;28;44764;-82
2022/06/28 04:55:02;;;;;;;;;0.20;0.20;;;;;18.70;100.00;101731.03;5017009;28;45354;-81
2022/06/28 04:57:28;;;;;;;;;0.80;0.80;;;;;18.88;100.00;101737.53;5017401;28;45440;-82
2022/06/28 04:59:53;;;;;;;;;0.50;0.50;;;;;18.98;100.00;101733.06;5017334;28;44805;-82
2022/06/28 05:02:19;;;;;;;;;1.00;0.00;;;;;19.11;100.00;101740.09;5019068;28;44676;-81
2022/06/28 05:04:44;;;;;;;;;0.00;0.00;;;;;19.24;100.00;101736.19;5018126;28;44848;-82
2022/06/28 05:07:09;;;;;;;;;0.50;0.00;;;;;19.36;100.00;101738.78;5020873;28;45045;-82
2022/06/28 05:09:35;;;;;;;;;0.00;0.00;;;;;19.43;100.00;101742.63;5019453;28;45232;-82
2022/06/28 05:12:00;;;;;;;;;1.00;0.00;;;;;19.55;100.00;101738.84;5020130;28;44911;-82
2022/06/28 05:14:26;;;;;;;;;0.00;0.00;;;;;19.69;100.00;101741.22;5019753;28;45317;-82
2022/06/28 05:16:52;;;;;;;;;1.60;0.00;;;;;19.83;100.00;101750.75;5020042;28;45432;-82
2022/06/28 05:19:17;;;;;;;;;0.00;0.00;;;;;19.96;100.00;101745.09;5021083;28;44850;-82
2022/06/28 05:21:43;;;;;;;;;1.00;1.00;;;;;20.15;100.00;101742.44;5021216;28;45428;-82
2022/06/28 05:24:08;;;;;;;;;0.00;0.00;;;;;20.34;100.00;101754.22;5005554;28;44850;-86
2022/06/28 05:26:33;;;;;;;;;0.00;0.00;;;;;20.47;100.00;101747.59;5029505;28;45133;-88
2022/06/28 05:28:59;;;;;;;;;2.50;1.25;;;;;20.39;100.00;101752.81;5016477;28;44830;-88
2022/06/28 05:31:24;;;;;;;;;5.00;1.00;;;;;20.44;100.00;101747.84;5039434;28;44817;-87
2022/06/28 05:33:50;;;;;;;;;2.75;0.50;;;;;20.41;100.00;101750.84;5042524;28;44830;-86
2022/06/28 05:36:15;;;;;;;;;0.00;0.00;;;;;20.33;100.00;101741.75;5021507;28;46548;-86
2022/06/28 05:38:41;;;;;;;;;0.00;0.00;;;;;20.22;100.00;101746.28;5037617;28;44809;-84
2022/06/28 05:41:06;;;;;;;;;1.75;1.00;;;;;20.17;100.00;101745.84;5015728;28;45072;-85
2022/06/28 05:43:31;;;;;;;;;0.50;0.50;;;;;20.20;100.00;101747.41;5035171;28;44855;-87
2022/06/28 05:45:57;;;;;;;;;1.00;1.00;;;;;20.35;100.00;101745.13;5039824;28;45169;-86
2022/06/28 05:48:22;;;;;;;;;1.75;0.00;;;;;20.29;100.00;101742.00;5036504;28;44732;-86
2022/06/28 05:50:47;;;;;;;;;0.00;0.00;;;;;20.42;100.00;101738.19;5025775;28;45236;-86
2022/06/28 05:53:13;;;;;;;;;0.75;0.00;;;;;20.59;100.00;101731.25;5001592;28;45349;-82
2022/06/28 05:55:39;;;;;;;;;0.00;0.00;;;;;20.82;100.00;101726.38;5020029;28;45435;-82
2022/06/28 05:58:05;;;;;;;;;0.00;0.00;;;;;21.01;100.00;101727.19;5020565;28;44829;-82
2022/06/28 06:00:30;;;;;;;;;1.00;1.00;;;;;21.24;100.00;101733.09;5022982;28;44865;-83
2022/06/28 06:02:55;;;;;;;;;1.00;0.00;;;;;21.51;100.00;101726.88;5007719;28;45270;-83
2022/06/28 06:05:21;;;;;;;;;0.50;0.25;;;;;21.73;100.00;101724.78;5002261;28;45021;-83
2022/06/28 06:07:47;;;;;;;;;2.00;0.50;;;;;21.88;100.00;101730.53;5008436;28;45455;-83
2022/06/28 06:10:12;;;;;;;;;2.00;0.00;;;;;21.86;100.00;101730.69;5020110;28;45428;-84
2022/06/28 06:12:38;;;;;;;;;2.00;0.00;;;;;21.85;100.00;101723.56;5019085;28;44886;-83
2022/06/28 06:15:03;;;;;;;;;0.25;0.00;;;;;21.71;100.00;101727.66;5009160;28;45128;-83
2022/06/28 06:17:29;;;;;;;;;3.00;0.00;;;;;21.70;100.00;101719.66;5000665;28;45329;-85
2022/06/28 06:19:54;;;;;;;;;0.00;0.00;;;;;21.63;100.00;101719.44;5005361;28;44732;-86
2022/06/28 06:22:20;;;;;;;;;2.75;2.00;;;;;21.60;100.00;101721.56;5006214;28;44808;-86
2022/06/28 06:24:46;;;;;;;;;0.00;0.00;;;;;21.61;100.00;101721.41;4985781;28;46673;-86
2022/06/28 06:27:14;;;;;;;;;0.00;0.00;;;;;21.54;100.00;101718.47;5005222;28;45233;-86
2022/06/28 06:29:41;;;;;;;;;2.80;1.00;;;;;21.54;100.00;101723.03;5025365;28;45202;-86
2022/06/28 06:32:07;;;;;;;;;6.00;2.00;;;;;21.65;100.00;101722.81;5026422;28;44854;-86
2022/06/28 06:34:32;;;;;;;;;3.00;1.25;;;;;21.48;100.00;101715.53;5011044;28;46434;-86
2022/06/28 06:36:57;;;;;;;;;2.00;0.00;;;;;21.26;100.00;101704.06;5029867;28;44737;-86
2022/06/28 06:39:23;;;;;;;;;0.75;0.75;;;;;21.34;100.00;101716.03;5016635;28;44753;-86
2022/06/28 06:41:48;;;;;;;;;0.00;0.00;;;;;21.36;100.00;101705.91;5024843;28;44877;-86
2022/06/28 06:44:13;;;;;;;;;0.50;0.00;;;;;21.41;100.00;101707.16;5019174;28;45443;-86
2022/06/28 06:46:39;;;;;;;;;2.00;0.00;;;;;21.59;100.00;101711.78;5024708;28;45346;-85
2022/06/28 06:49:04;;;;;;;;;5.50;2.00;;;;;21.85;100.00;101703.78;5005812;28;45510;-86
2022/06/28 06:51:32;;;;;;;;;2.50;1.00;;;;;22.14;100.00;101707.16;5002159;28;44965;-86
2022/06/28 06:53:58;;;;;;;;;3.00;2.00;;;;;22.43;100.00;101708.75;5018988;28;44997;-86
2022/06/28 06:56:24;;;;;;;;;4.00;3.00;;;;;22.70;100.00;101705.09;5022327;28;45266;-86
2022/06/28 06:58:51;;;;;;;;;3.00;1.00;;;;;22.82;100.00;101701.97;4987512;28;44785;-89
2022/06/28 07:01:16;;;;;;;;;0.60;0.00;;;;;22.90;100.00;101701.19;5003993;28;44828;-86
2022/06/28 07:03:44;;;;;;;;;3.00;2.00;;;;;22.89;100.00;101699.50;4984266;28;46572;-86
2022/06/28 07:06:13;;;;;;;;;3.80;2.00;;;;;23.03;100.00;101693.50;5003845;28;44819;-87
2022/06/28 07:08:39;;;;;;;;;1.20;1.00;;;;;23.18;100.00;101704.59;4999131;28;44724;-86
2022/06/28 07:11:04;;;;;;;;;3.20;2.40;;;;;23.36;100.00;101693.66;5027086;28;45147;-86
2022/06/28 07:13:30;;;;;;;;;2.75;2.00;;;;;23.45;100.00;101689.97;5024630;28;45035;-86
2022/06/28 07:15:55;;;;;;;;;3.75;1.00;;;;;23.39;100.00;101695.19;5022334;28;44942;-87
2022/06/28 07:18:21;;;;;;;;;1.50;1.50;;;;;23.19;100.00;101681.88;5025366;28;44798;-87
2022/06/28 07:20:51;;;;;;;;;1.25;0.75;;;;;23.22;100.00;101676.13;5028447;28;44885;-87
2022/06/28 07:23:16;;;;;;;;;1.00;1.00;;;;;23.50;100.00;101681.34;5027673;28;46776;-89
2022/06/28 07:25:41;;;;;;;;;1.25;1.25;;;;;23.67;100.00;101664.13;5023930;28;45641;-88
2022/06/28 07:28:10;;;;;;;;;3.00;1.50;;;;;23.90;100.00;101669.78;5008978;28;45234;-88
2022/06/28 07:30:36;;;;;;;;;1.20;1.00;;;;;24.15;100.00;101664.38;5016717;28;45429;-90
2022/06/28 07:33:01;;;;;;;;;2.75;1.50;;;;;24.36;100.00;101653.84;5020657;28;44918;-88
2022/06/28 07:35:27;;;;;;;;;1.75;1.75;;;;;24.56;100.00;101667.94;5002173;28;45369;-88
2022/06/28 07:37:52;;;;;;;;;2.00;1.00;;;;;24.60;100.00;101663.84;5018738;28;44828;-88
2022/06/28 07:40:18;;;;;;;;;6.00;2.75;;;;;24.79;99.53;101662.63;5026733;28;44958;-88
2022/06/28 07:42:44;;;;;;;;;2.50;1.75;;;;;24.87;99.92;101668.06;5032219;28;45076;-88
2022/06/28 07:45:11;;;;;;;;;22.75;10.75;;;;;25.02;98.31;101660.88;5018646;28;44728;-89
2022/06/28 07:47:36;;;;;;;;;10.00;6.80;;;;;24.92;99.20;101653.94;5014484;28;45257;-88
2022/06/28 07:52:46;;;;;;;;;2.00;0.40;;;;;24.24;98.92;101661.47;5022464;28;44872;-87
2022/06/28 07:55:12;;;;;;;;;3.75;2.00;;;;;24.30;99.60;101649.94;5022253;28;44805;-87
2022/06/28 07:57:37;;;;;;;;;6.00;2.00;;;;;24.35;99.22;101652.97;5014626;28;44704;-88
2022/06/28 08:00:05;;;;;;;;;3.25;3.00;;;;;24.33;98.22;101636.03;5010411;28;44869;-88
2022/06/28 08:02:30;;;;;;;;;9.20;3.40;;;;;24.30;98.03;101636.34;5000773;28;46891;-88
2022/06/28 08:04:55;;;;;;;;;9.50;4.50;;;;;24.18;98.82;101639.59;5005710;28;44727;-87
2022/06/28 08:07:21;;;;;;;;;4.25;2.50;;;;;24.18;99.28;101643.16;5022384;28;44727;-86
2022/06/28 08:09:47;;;;;;;;;1.50;0.00;;;;;24.24;99.75;101638.91;5029628;28;44950;-87
2022/06/28 08:12:12;;;;;;;;;3.75;2.75;;;;;24.23;97.36;101642.66;4990960;28;44957;-87
2022/06/28 08:14:38;;;;;;;;;2.50;2.00;;;;;23.89;98.98;101637.38;4997930;28;44836;-88
2022/06/28 08:17:04;;;;;;;;;4.00;3.00;;;;;23.98;100.00;101639.94;5026814;28;44850;-87
2022/06/28 08:19:29;;;;;;;;;3.20;1.80;;;;;23.85;100.00;101621.41;4999541;28;44871;-87
2022/06/28 08:21:55;;;;;;;;;5.25;3.00;;;;;24.02;100.00;101629.56;5005922;28;46727;-87
2022/06/28 08:24:20;;;;;;;;;2.00;2.00;;;;;24.13;100.00;101623.81;5023856;28;44798;-87
2022/06/28 08:26:46;;;;;;;;;3.00;3.00;;;;;24.03;100.00;101628.53;5007045;28;44742;-88
2022/06/28 08:29:13;;;;;;;;;5.50;2.75;;;;;23.93;100.00;101622.44;4990871;28;45006;-88
2022/06/28 08:31:38;;;;;;;;;3.20;2.80;;;;;23.96;100.00;101622.94;4999423;28;45268;-86
2022/06/28 08:34:04;;;;;;;;;3.75;2.75;;;;;24.16;100.00;101620.75;5006989;28;45309;-87
2022/06/28 08:36:29;;;;;;;;;5.00;3.00;;;;;24.26;100.00;101607.00;5002314;28;44824;-86
2022/06/28 08:38:56;;;;;;;;;2.00;2.00;;;;;24.33;98.48;101603.44;5010548;28;45162;-87
2022/06/28 08:41:25;;;;;;;;;2.00;2.00;;;;;24.46;97.11;101608.34;5013465;28;45008;-87
2022/06/28 08:43:53;;;;;;;;;3.00;2.40;;;;;24.29;96.17;101593.06;5009306;28;44744;-87
2022/06/28 08:46:20;;;;;;;;;3.20;3.00;;;;;24.19;95.70;101603.28;5029848;28;44866;-87
2022/06/28 08:48:51;;;;;;;;;7.00;3.00;;;;;24.27;95.98;101598.69;5014067;28;44807;-88
2022/06/28 08:51:17;;;;;;;;;6.20;3.60;;;;;24.35;96.82;101590.50;5019385;28;45056;-88
2022/06/28 08:53:47;;;;;;;;;3.00;1.50;;;;;24.29;94.56;101590.34;5012504;28;44703;-86
2022/06/28 08:56:13;;;;;;;;;3.60;3.60;;;;;24.29;93.51;101593.06;5017522;28;44806;-87
2022/06/28 08:58:42;;;;;;;;;3.60;1.00;;;;;24.41;92.56;101588.16;5019266;28;45317;-88
2022/06/28 09:01:09;;;;;;;;;3.80;1.60;;;;;24.50;89.77;101578.97;5014457;28;45190;-87
2022/06/28 09:03:34;;;;;;;;;1.00;1.00;;;;;24.66;90.42;101578.06;5000229;28;45373;-86
2022/06/28 09:06:00;;;;;;;;;1.75;1.75;;;;;24.75;89.46;101572.44;5005636;28;44771;-85
2022/06/28 09:08:26;;;;;;;;;6.50;0.75;;;;;24.83;87.20;101571.56;4987386;28;44982;-85
2022/06/28 09:10:51;;;;;;;;;2.00;2.00;;;;;24.84;83.21;101565.09;5007237;28;45436;-86
2022/06/28 09:13:19;;;;;;;;;2.00;1.00;;;;;24.82;85.02;101565.28;4994343;28;45523;-86
2022/06/28 09:15:56;;;;;;;;;2.80;2.00;;;;;24.94;80.23;101562.19;5007350;28;44899;-87
2022/06/28 09:18:26;;;;;;;;;5.20;1.20;;;;;24.92;72.40;101562.38;5019629;28;44839;-86
2022/06/28 09:20:55;;;;;;;;;0.80;0.80;;;;;24.78;74.16;101561.22;5018999;28;45415;-86
2022/06/28 09:23:45;;;;;;;;;6.20;2.00;;;;;24.73;71.76;101560.06;5008477;28;45391;-87
2022/06/28 09:26:14;;;;;;;;;4.60;2.20;;;;;24.87;74.04;101551.19;5015122;28;44795;-88
2022/06/28 09:28:48;;;;;;;;;3.80;1.00;;;;;25.08;73.05;101559.59;4988522;28;44883;-87
2022/06/28 09:31:22;;;;;;;;;2.20;1.20;;;;;25.17;66.42;101556.84;5006453;28;45115;-88
2022/06/28 09:33:48;;;;;;;;;2.40;1.00;;;;;25.16;65.06;101555.16;4997695;28;44724;-89
2022/06/28 09:36:16;;;;;;;;;4.00;1.00;;;;;25.22;69.49;101547.09;4997850;28;44859;-88
2022/06/28 09:38:42;;;;;;;;;1.00;1.00;;;;;25.29;68.41;101533.66;4987955;28;44971;-88
2022/06/28 09:41:26;;;;;;;;;2.25;2.25;;;;;25.22;69.09;101532.66;5004250;28;47082;-88
2022/06/28 09:44:02;;;;;;;;;2.60;1.00;;;;;25.33;69.63;101534.97;5011550;28;44692;-85
2022/06/28 09:46:30;;;;;;;;;1.00;1.00;;;;;25.39;71.32;101542.44;5018683;28;44842;-87
2022/06/28 09:48:57;;;;;;;;;1.80;1.60;;;;;25.47;73.77;101534.19;5021403;28;45242;-87
2022/06/28 09:51:24;;;;;;;;;1.40;1.40;;;;;25.56;69.81;101524.94;5019569;28;46968;-87
2022/06/28 09:54:02;;;;;;;;;4.20;3.00;;;;;25.55;71.54;101530.56;5022929;28;45370;-86
2022/06/28 09:56:33;;;;;;;;;1.60;1.60;;;;;25.47;66.20;101533.34;5027198;28;45369;-85
2022/06/28 09:58:58;;;;;;;;;1.00;1.00;;;;;25.35;65.87;101525.63;5027282;28;44766;-86
2022/06/28 10:01:25;;;;;;;;;1.00;1.00;;;;;25.33;65.88;101524.94;5023748;28;45337;-86
2022/06/28 10:03:51;;;;;;;;;1.00;1.00;;;;;25.08;63.88;101523.41;5020501;28;45333;-86
2022/06/28 10:06:18;;;;;;;;;2.00;1.00;;;;;24.92;60.50;101516.16;5020595;28;44782;-86
2022/06/28 10:08:45;;;;;;;;;1.00;1.00;;;;;24.89;64.41;101524.66;5020857;28;45312;-86
2022/06/28 10:11:11;;;;;;;;;1.00;1.00;;;;;25.04;68.74;101512.00;5021164;28;45349;-85
2022/06/28 10:16:57;;;;;;;;;0.60;0.60;;;;;25.46;68.59;101508.00;5020785;28;44755;-85
2022/06/28 10:19:25;;;;;;;;;1.40;1.40;;;;;25.33;62.58;101499.59;5027230;28;45350;-85
2022/06/28 10:21:54;;;;;;;;;3.40;3.40;;;;;25.16;65.65;101496.16;5026480;28;45353;-86
2022/06/28 10:24:20;;;;;;;;;1.00;1.00;;;;;25.24;65.56;101493.41;5004407;28;44835;-86
2022/06/28 10:27:12;;;;;;;;;1.00;1.00;;;;;25.41;64.73;101488.69;5020905;28;44786;-86
2022/06/28 10:30:00;;;;;;;;;1.60;1.60;;;;;25.53;64.69;101489.94;5020196;28;45688;-86
2022/06/28 10:32:43;;;;;;;;;1.00;1.00;;;;;25.64;61.23;101488.66;5020330;28;45452;-86
2022/06/28 10:35:09;;;;;;;;;4.00;0.20;;;;;25.67;60.68;101480.13;5021494;28;45313;-87
2022/06/28 10:37:35;;;;;;;;;1.00;1.00;;;;;25.70;61.85;101470.75;5025622;28;44790;-86
2022/06/28 10:40:22;;;;;;;;;2.00;1.00;;;;;25.72;59.51;101477.69;5026178;28;44752;-86
2022/06/28 10:42:49;;;;;;;;;1.20;1.20;;;;;25.80;61.16;101472.22;5027336;28;45373;-86
2022/06/28 10:45:14;;;;;;;;;1.00;1.00;;;;;25.98;61.99;101465.59;5010327;28;44849;-87
2022/06/28 10:48:08;;;;;;;;;1.50;1.25;;;;;26.05;60.87;101459.19;5025406;28;45396;-86
2022/06/28 10:50:55;;;;;;;;;2.00;2.00;;;;;26.21;61.87;101469.09;5024293;28;44789;-85
2022/06/28 10:53:21;;;;;;;;;2.00;2.00;;;;;26.20;60.44;101464.63;5024464;28;44968;-85
2022/06/28 10:56:25;;;;;;;;;1.25;1.25;;;;;26.24;56.31;101473.28;5022190;28;44784;-85
2022/06/28 10:58:59;;;;;;;;;0.40;0.40;;;;;25.31;54.07;101460.88;4979844;28;44761;-86
2022/06/28 11:01:40;;;;;;;;;0.00;0.00;;;;;25.15;54.96;101467.28;4979584;28;44968;-85
2022/06/28 11:04:21;;;;;;;;;1.00;1.00;;;;;25.40;57.90;101459.78;4978290;28;45394;-85
2022/06/28 11:06:50;;;;;;;;;2.20;2.20;;;;;25.74;54.66;101464.75;4979471;28;45448;-85
2022/06/28 11:09:25;;;;;;;;;10.60;8.80;;;;;25.85;55.58;101458.88;4980098;28;45339;-86
2022/06/28 11:12:11;;;;;;;;;3.00;1.40;;;;;26.14;58.17;101463.50;4979549;28;44840;-86
2022/06/28 11:14:54;;;;;;;;;2.00;1.00;;;;;26.30;53.36;101453.47;4980620;28;44980;-85
2022/06/28 11:17:28;;;;;;;;;1.60;1.20;;;;;26.43;54.15;101453.69;4987991;28;44759;-85
2022/06/28 11:20:00;;;;;;;;;0.00;0.00;;;;;25.91;52.90;101446.41;4984700;28;45372;-86
2022/06/28 11:22:28;;;;;;;;;3.00;1.40;;;;;26.13;54.30;101448.22;4982955;28;44799;-85
2022/06/28 11:24:57;;;;;;;;;1.00;1.00;;;;;26.20;53.19;101445.56;4963831;28;47301;-86
2022/06/28 11:27:23;;;;;;;;;5.80;4.20;;;;;25.88;54.92;101452.25;4977596;28;44831;-85
2022/06/28 11:30:04;;;;;;;;;2.20;2.00;;;;;26.05;57.42;101450.16;5002963;28;44665;-85
2022/06/28 11:32:38;;;;;;;;;2.00;2.00;;;;;26.38;55.16;101448.75;5020152;28;44914;-86
2022/06/28 11:35:07;;;;;;;;;2.80;1.00;;;;;26.73;54.83;101445.44;5018528;28;45420;-86
2022/06/28 11:37:45;;;;;;;;;1.00;1.00;;;;;27.02;53.55;101441.78;5023852;28;45323;-86